createdAt,value
2022-08-19T00:00:38.668Z,6.28
2022-08-19T00:04:03.773Z,6.25
2022-08-19T00:07:26.856Z,5.97
2022-08-19T00:10:49.861Z,6.07
2022-08-19T00:14:14.119Z,6.10
2022-08-19T00:17:38.427Z,6.18
2022-08-19T00:21:09.679Z,6.20
2022-08-19T00:24:32.810Z,5.63
2022-08-19T00:27:56.502Z,6.07
2022-08-19T00:31:19.940Z,5.90
2022-08-19T00:34:44.405Z,5.80
2022-08-19T00:38:07.665Z,6.35
2022-08-19T00:41:30.664Z,5.65
2022-08-19T00:44:53.710Z,5.68
2022-08-19T00:48:17.368Z,6.10
2022-08-19T00:51:42.801Z,6.47
2022-08-19T00:55:11.066Z,6.57
2022-08-19T00:58:37.169Z,6.13
2022-08-19T01:02:00.303Z,6.38
2022-08-19T01:05:28.269Z,5.65
2022-08-19T01:08:52.684Z,6.25
2022-08-19T01:12:16.193Z,6.50
2022-08-19T01:15:45.401Z,5.75
2022-08-19T01:19:15.014Z,6.10
2022-08-19T01:22:44.687Z,6.20
2022-08-19T01:26:07.746Z,6.85
2022-08-19T01:29:31.101Z,6.47
2022-08-19T01:32:55.382Z,5.85
2022-08-19T01:36:26.497Z,6.35
2022-08-19T01:39:51.199Z,6.80
2022-08-19T01:43:14.332Z,6.18
2022-08-19T01:46:38.264Z,6.22
2022-08-19T01:50:01.253Z,6.20
2022-08-19T01:53:24.229Z,6.43
2022-08-19T01:56:57.946Z,6.68
2022-08-19T02:00:23.185Z,6.35
2022-08-19T02:03:46.826Z,6.20
2022-08-19T02:07:10.155Z,6.45
2022-08-19T02:10:33.941Z,7.25
2022-08-19T02:13:58.269Z,6.25
2022-08-19T02:17:21.609Z,6.68
2022-08-19T02:20:45.718Z,7.07
2022-08-19T02:24:09.662Z,7.72
2022-08-19T02:27:34.314Z,6.95
2022-08-19T02:31:01.615Z,7.00
2022-08-19T02:34:26.109Z,6.93
2022-08-19T02:38:06.820Z,7.47
2022-08-19T02:41:32.409Z,7.78
2022-08-19T02:44:57.736Z,6.72
2022-08-19T02:48:23.263Z,7.45
2022-08-19T02:51:47.585Z,7.03
2022-08-19T02:55:11.509Z,6.88
2022-08-19T02:58:34.527Z,7.07
2022-08-19T03:01:57.720Z,7.32
2022-08-19T03:05:47.136Z,6.93
2022-08-19T03:09:05.334Z,7.15
2022-08-19T03:12:28.294Z,7.60
2022-08-19T03:15:51.354Z,7.65
2022-08-19T03:19:15.537Z,6.88
2022-08-19T03:22:39.919Z,8.13
2022-08-19T03:26:16.237Z,7.82
2022-08-19T03:29:43.127Z,7.15
2022-08-19T03:33:06.380Z,8.05
2022-08-19T03:36:31.615Z,7.32
2022-08-19T03:39:55.986Z,8.13
2022-08-19T03:43:19.972Z,7.40
2022-08-19T03:46:44.658Z,7.65
2022-08-19T03:50:09.636Z,8.25
2022-08-19T03:53:34.673Z,7.55
2022-08-19T03:56:59.742Z,7.10
2022-08-19T04:00:23.007Z,7.28
2022-08-19T04:03:47.463Z,8.38
2022-08-19T04:07:11.000Z,7.63
2022-08-19T04:10:37.173Z,6.93
2022-08-19T04:14:02.264Z,7.88
2022-08-19T04:17:27.425Z,7.07
2022-08-19T04:20:50.688Z,8.05
2022-08-19T04:24:14.682Z,8.02
2022-08-19T04:27:37.710Z,7.28
2022-08-19T04:31:02.049Z,7.88
2022-08-19T04:34:27.079Z,7.38
2022-08-19T04:37:50.107Z,8.18
2022-08-19T04:41:30.470Z,7.68
2022-08-19T04:44:53.476Z,12.55
2022-08-19T04:48:27.909Z,9.35
2022-08-19T04:51:53.291Z,8.13
2022-08-19T04:55:16.248Z,8.23
2022-08-19T04:58:42.630Z,8.05
2022-08-19T05:02:06.689Z,8.90
2022-08-19T05:05:32.025Z,8.45
2022-08-19T05:09:07.993Z,9.57
2022-08-19T05:12:31.053Z,8.50
2022-08-19T05:15:56.813Z,9.77
2022-08-19T05:19:37.457Z,10.63
2022-08-19T05:23:02.586Z,10.40
2022-08-19T05:26:36.733Z,10.95
2022-08-19T05:29:59.908Z,11.60
2022-08-19T05:33:23.375Z,11.43
2022-08-19T05:36:47.164Z,10.90
2022-08-19T05:40:12.634Z,11.50
2022-08-19T05:43:35.645Z,11.63
2022-08-19T05:46:59.157Z,13.73
2022-08-19T05:50:22.240Z,13.50
2022-08-19T05:53:46.137Z,13.85
2022-08-19T05:57:12.711Z,16.02
2022-08-19T06:00:36.790Z,17.52
2022-08-19T06:04:00.577Z,15.90
2022-08-19T06:07:23.853Z,14.82
2022-08-19T06:10:46.963Z,15.68
2022-08-19T06:14:16.674Z,15.02
2022-08-19T06:17:40.473Z,15.63
2022-08-19T06:21:04.900Z,27.50
2022-08-19T06:24:30.208Z,19.95
2022-08-19T06:28:14.025Z,24.30
2022-08-19T06:31:39.460Z,31.83
2022-08-19T06:35:02.474Z,22.33
2022-08-19T06:38:25.760Z,34.10
2022-08-19T06:41:52.504Z,23.38
2022-08-19T06:45:17.355Z,28.15
2022-08-19T06:48:49.731Z,21.05
2022-08-19T06:52:15.219Z,18.05
2022-08-19T06:55:38.481Z,24.65
2022-08-19T06:59:01.852Z,24.70
2022-08-19T07:02:27.249Z,23.52
2022-08-19T07:05:51.597Z,26.83
2022-08-19T07:09:18.622Z,22.77
2022-08-19T07:12:42.144Z,26.95
2022-08-19T07:16:06.668Z,25.50
2022-08-19T07:19:32.372Z,22.73
2022-08-19T07:22:57.645Z,19.98
2022-08-19T07:26:27.694Z,19.38
2022-08-19T07:29:54.512Z,24.98
2022-08-19T07:33:20.207Z,21.17
2022-08-19T07:36:44.300Z,19.83
2022-08-19T07:40:09.720Z,18.00
2022-08-19T07:43:34.900Z,17.08
2022-08-19T07:47:01.039Z,19.27
2022-08-19T07:50:24.373Z,16.17
2022-08-19T07:53:48.033Z,16.33
2022-08-19T07:57:12.920Z,16.65
2022-08-19T08:00:36.796Z,15.43
2022-08-19T08:04:17.761Z,17.23
2022-08-19T08:07:58.364Z,16.38
2022-08-19T08:11:24.062Z,14.50
2022-08-19T08:14:51.215Z,14.63
2022-08-19T08:18:19.693Z,14.85
2022-08-19T08:21:43.470Z,16.52
2022-08-19T08:25:08.683Z,19.20
2022-08-19T08:28:32.152Z,19.98
2022-08-19T08:31:59.731Z,19.05
2022-08-19T08:35:25.946Z,18.15
2022-08-19T08:38:49.144Z,20.30
2022-08-19T08:42:18.671Z,22.85
2022-08-19T08:45:53.760Z,22.52
2022-08-19T08:49:28.476Z,19.38
2022-08-19T08:52:56.031Z,20.00
2022-08-19T08:56:19.609Z,16.30
2022-08-19T08:59:45.457Z,15.45
2022-08-19T09:03:19.034Z,17.23
2022-08-19T09:07:18.577Z,16.02
2022-08-19T09:10:55.285Z,13.30
2022-08-19T09:14:49.818Z,18.65
2022-08-19T09:18:15.187Z,17.48
2022-08-19T09:21:43.534Z,17.98
2022-08-19T09:25:07.843Z,18.73
2022-08-19T09:28:32.390Z,18.70
2022-08-19T09:31:55.730Z,13.77
2022-08-19T09:35:18.861Z,13.15
2022-08-19T09:38:45.334Z,14.60
2022-08-19T09:42:16.572Z,18.50
2022-08-19T09:45:54.738Z,15.05
2022-08-19T09:49:18.394Z,17.10
2022-08-19T09:52:43.110Z,17.00
2022-08-19T09:56:20.660Z,14.85
2022-08-19T09:59:45.279Z,16.45
2022-08-19T10:03:08.272Z,12.52
2022-08-19T10:06:45.735Z,13.45
2022-08-19T10:10:11.829Z,14.65
2022-08-19T10:13:37.648Z,14.70
2022-08-19T10:17:01.262Z,13.43
2022-08-19T10:20:27.870Z,14.70
2022-08-19T10:23:52.829Z,13.82
2022-08-19T10:27:15.916Z,12.43
2022-08-19T10:30:41.424Z,13.60
2022-08-19T10:34:04.441Z,12.85
2022-08-19T10:37:29.189Z,11.63
2022-08-19T10:40:55.468Z,13.18
2022-08-19T10:44:19.030Z,11.80
2022-08-19T10:47:43.321Z,10.27
2022-08-19T10:51:24.542Z,11.55
2022-08-19T10:55:10.197Z,12.02
2022-08-19T10:58:33.204Z,10.18
2022-08-19T11:02:01.057Z,10.60
2022-08-19T11:05:25.430Z,10.73
2022-08-19T11:08:48.426Z,10.40
2022-08-19T11:12:13.585Z,10.90
2022-08-19T11:15:36.593Z,10.98
2022-08-19T11:19:01.725Z,11.02
2022-08-19T11:22:30.019Z,10.32
2022-08-19T11:26:02.290Z,10.65
2022-08-19T11:29:28.553Z,10.77
2022-08-19T11:32:51.530Z,9.15
2022-08-19T11:36:15.119Z,10.25
2022-08-19T11:39:40.394Z,9.77
2022-08-19T11:43:03.441Z,9.95
2022-08-19T11:46:30.283Z,9.18
2022-08-19T11:49:54.390Z,8.50
2022-08-19T11:53:19.296Z,8.45
2022-08-19T11:56:44.060Z,8.77
2022-08-19T12:00:08.588Z,7.80
2022-08-19T12:03:31.622Z,8.13
2022-08-19T12:06:54.885Z,8.20
2022-08-19T12:10:19.448Z,8.13
2022-08-19T12:13:45.849Z,8.00
2022-08-19T12:17:10.024Z,7.70
2022-08-19T12:20:35.569Z,7.40
2022-08-19T12:24:01.802Z,7.72
2022-08-19T12:27:40.483Z,7.43
2022-08-19T12:31:06.195Z,6.70
2022-08-19T12:34:31.778Z,7.15
2022-08-19T12:37:57.276Z,6.47
2022-08-19T12:41:23.051Z,7.20
2022-08-19T12:44:46.547Z,7.68
2022-08-19T12:48:33.641Z,6.47
2022-08-19T12:51:54.219Z,7.35
2022-08-19T12:55:19.469Z,5.97
2022-08-19T12:58:50.437Z,6.38
2022-08-19T13:02:13.830Z,5.93
2022-08-19T13:05:38.183Z,5.47
2022-08-19T13:09:01.164Z,6.18
2022-08-19T13:12:27.467Z,6.50
2022-08-19T13:15:50.573Z,5.40
2022-08-19T13:19:14.176Z,5.60
2022-08-19T13:22:39.250Z,5.95
2022-08-19T13:26:04.133Z,6.10
2022-08-19T13:29:44.628Z,5.93
2022-08-19T13:33:15.935Z,5.75
2022-08-19T13:36:40.178Z,6.00
2022-08-19T13:40:05.584Z,5.80
2022-08-19T13:43:30.164Z,5.53
2022-08-19T13:46:54.164Z,6.88
2022-08-19T13:50:19.272Z,6.88
2022-08-19T13:53:47.782Z,6.45
2022-08-19T13:57:15.513Z,6.03
2022-08-19T14:00:46.522Z,5.60
2022-08-19T14:04:10.109Z,5.55
2022-08-19T14:07:33.224Z,6.93
2022-08-19T14:10:56.705Z,6.43
2022-08-19T14:14:21.028Z,5.75
2022-08-19T14:17:47.407Z,6.03
2022-08-19T14:21:15.848Z,6.13
2022-08-19T14:24:40.808Z,5.30
2022-08-19T14:28:10.862Z,6.10
2022-08-19T14:31:35.228Z,5.35
2022-08-19T14:34:58.244Z,5.53
2022-08-19T14:38:31.142Z,6.47
2022-08-19T14:41:54.772Z,6.35
2022-08-19T14:45:17.822Z,5.50
2022-08-19T14:48:42.226Z,5.60
2022-08-19T14:52:05.805Z,5.00
2022-08-19T14:55:29.169Z,5.43
2022-08-19T14:58:52.506Z,5.68
2022-08-19T15:02:34.246Z,5.88
2022-08-19T15:06:01.473Z,5.78
2022-08-19T15:09:24.497Z,6.05
2022-08-19T15:12:51.724Z,5.45
2022-08-19T15:16:18.025Z,6.28
2022-08-19T15:19:41.541Z,6.78
2022-08-19T15:23:06.576Z,5.82
2022-08-19T15:26:33.124Z,5.13
2022-08-19T15:30:01.549Z,5.47
2022-08-19T15:33:24.782Z,5.65
2022-08-19T15:36:47.735Z,5.30
2022-08-19T15:40:13.542Z,5.68
2022-08-19T15:43:43.451Z,5.63
2022-08-19T15:47:06.968Z,6.28
2022-08-19T15:50:31.990Z,5.20
2022-08-19T15:53:55.469Z,5.20
2022-08-19T15:57:51.720Z,5.20
2022-08-19T16:01:32.295Z,6.10
2022-08-19T16:05:18.649Z,5.57
2022-08-19T16:08:49.302Z,5.80
2022-08-19T16:12:12.488Z,5.75
2022-08-19T16:15:36.937Z,5.30
2022-08-19T16:19:02.169Z,5.13
2022-08-19T16:22:30.255Z,4.97
2022-08-19T16:25:53.324Z,5.80
2022-08-19T16:29:33.206Z,4.97
2022-08-19T16:32:59.229Z,7.05
2022-08-19T16:36:24.021Z,5.43
2022-08-19T16:39:47.021Z,5.68
2022-08-19T16:43:10.688Z,5.78
2022-08-19T16:46:33.708Z,5.20
2022-08-19T16:49:58.118Z,5.28
2022-08-19T16:53:23.254Z,4.95
2022-08-19T16:56:48.121Z,5.35
2022-08-19T17:00:13.427Z,5.32
2022-08-19T17:03:37.489Z,4.78
2022-08-19T17:07:01.833Z,5.22
2022-08-19T17:10:25.060Z,5.32
2022-08-19T17:13:48.489Z,5.15
2022-08-19T17:17:12.741Z,5.20
2022-08-19T17:20:36.342Z,5.68
2022-08-19T17:24:01.697Z,4.95
2022-08-19T17:27:24.794Z,5.20
2022-08-19T17:30:49.525Z,5.47
2022-08-19T17:34:12.603Z,6.10
2022-08-19T17:37:36.854Z,6.15
2022-08-19T17:41:05.129Z,6.93
2022-08-19T17:44:28.208Z,6.82
2022-08-19T17:47:51.548Z,5.68
2022-08-19T17:51:16.386Z,6.03
2022-08-19T17:54:39.711Z,6.22
2022-08-19T17:58:05.373Z,6.28
2022-08-19T18:01:52.320Z,6.43
2022-08-19T18:05:15.056Z,6.70
2022-08-19T18:08:39.094Z,6.70
2022-08-19T18:12:03.302Z,7.13
2022-08-19T18:15:27.961Z,7.53
2022-08-19T18:18:52.633Z,7.22
2022-08-19T18:22:24.293Z,7.47
2022-08-19T18:25:47.303Z,6.93
2022-08-19T18:29:10.397Z,7.45
2022-08-19T18:32:38.016Z,6.47
2022-08-19T18:36:01.633Z,8.30
2022-08-19T18:39:45.092Z,8.20
2022-08-19T18:43:26.044Z,8.25
2022-08-19T18:47:06.732Z,6.63
2022-08-19T18:50:31.168Z,7.07
2022-08-19T18:53:55.413Z,7.72
2022-08-19T18:57:24.813Z,7.88
2022-08-19T19:00:49.393Z,7.78
2022-08-19T19:04:13.215Z,6.28
2022-08-19T19:07:37.559Z,6.28
2022-08-19T19:11:05.093Z,4.88
2022-08-19T19:14:48.543Z,5.57
2022-08-19T19:18:13.510Z,5.00
2022-08-19T19:21:37.357Z,5.75
2022-08-19T19:25:02.506Z,5.50
2022-08-19T19:28:28.478Z,5.35
2022-08-19T19:31:52.725Z,5.78
2022-08-19T19:35:15.761Z,5.50
2022-08-19T19:38:38.814Z,6.47
2022-08-19T19:42:07.713Z,5.97
2022-08-19T19:45:36.889Z,6.13
2022-08-19T19:49:00.484Z,7.40
2022-08-19T19:52:25.358Z,7.53
2022-08-19T19:55:48.500Z,7.05
2022-08-19T19:59:13.021Z,7.57
2022-08-19T20:02:36.130Z,8.07
2022-08-19T20:06:00.227Z,7.90
2022-08-19T20:09:39.101Z,7.25
2022-08-19T20:13:08.672Z,7.30
2022-08-19T20:16:33.452Z,7.07
2022-08-19T20:19:57.484Z,6.90
2022-08-19T20:23:21.691Z,6.93
2022-08-19T20:26:47.069Z,6.88
2022-08-19T20:30:19.427Z,5.47
2022-08-19T20:33:44.425Z,7.45
2022-08-19T20:37:09.107Z,6.43
2022-08-19T20:40:34.087Z,6.63
2022-08-19T20:43:57.713Z,6.43
2022-08-19T20:47:20.675Z,6.05
2022-08-19T20:50:44.990Z,6.22
2022-08-19T20:54:07.953Z,6.05
2022-08-19T20:57:31.073Z,6.22
2022-08-19T21:00:57.788Z,6.25
2022-08-19T21:04:22.208Z,5.93
2022-08-19T21:07:46.546Z,5.57
2022-08-19T21:11:10.397Z,6.30
2022-08-19T21:14:33.853Z,5.43
2022-08-19T21:17:57.081Z,6.13
2022-08-19T21:21:20.413Z,6.07
2022-08-19T21:24:44.687Z,7.57
2022-08-19T21:28:07.807Z,6.63
2022-08-19T21:31:30.770Z,7.07
2022-08-19T21:34:53.785Z,5.90
2022-08-19T21:38:16.778Z,8.30
2022-08-19T21:41:43.602Z,9.40
2022-08-19T21:45:08.211Z,9.10
2022-08-19T21:48:31.234Z,11.77
2022-08-19T21:51:54.200Z,11.63
2022-08-19T21:55:17.522Z,10.38
2022-08-19T21:58:42.070Z,9.77
2022-08-19T22:02:19.157Z,9.07
2022-08-19T22:05:43.574Z,9.27
2022-08-19T22:09:06.604Z,9.45
2022-08-19T22:12:32.311Z,8.45
2022-08-19T22:15:56.697Z,9.45
2022-08-19T22:19:19.685Z,10.77
2022-08-19T22:22:48.624Z,8.98
2022-08-19T22:26:14.432Z,7.57
2022-08-19T22:29:37.591Z,8.80
2022-08-19T22:33:03.677Z,9.23
2022-08-19T22:36:26.965Z,9.60
2022-08-19T22:39:49.974Z,7.35
2022-08-19T22:43:15.602Z,7.28
2022-08-19T22:46:38.718Z,7.43
2022-08-19T22:50:03.250Z,7.07
2022-08-19T22:53:27.196Z,8.18
2022-08-19T22:56:51.730Z,8.85
2022-08-19T23:00:15.767Z,9.50
2022-08-19T23:03:38.709Z,8.20
2022-08-19T23:07:03.324Z,8.85
2022-08-19T23:10:28.856Z,8.70
2022-08-19T23:13:52.082Z,8.35
2022-08-19T23:17:15.069Z,6.88
2022-08-19T23:20:45.052Z,10.38
2022-08-19T23:24:10.204Z,8.10
2022-08-19T23:27:50.959Z,8.32
2022-08-19T23:31:14.193Z,8.55
2022-08-19T23:34:37.194Z,8.48
2022-08-19T23:38:01.608Z,8.32
2022-08-19T23:41:27.148Z,7.15
2022-08-19T23:44:51.285Z,8.43
2022-08-19T23:48:16.293Z,8.90
2022-08-19T23:51:39.286Z,8.32
2022-08-19T23:55:02.821Z,10.15
2022-08-19T23:58:30.256Z,6.25
